createdAt,value
2023-02-12T00:02:25.492Z,99404.03
2023-02-12T00:06:28.924Z,99415.69
2023-02-12T00:10:31.952Z,99418.00
2023-02-12T00:14:38.896Z,99421.34
2023-02-12T00:18:42.509Z,99423.84
2023-02-12T00:22:46.045Z,99421.16
2023-02-12T00:26:51.142Z,99417.63
2023-02-12T00:30:55.733Z,99440.94
2023-02-12T00:34:58.937Z,99423.84
2023-02-12T00:39:02.669Z,99436.00
2023-02-12T00:43:06.383Z,99437.03
2023-02-12T00:47:10.754Z,99442.28
2023-02-12T00:51:14.188Z,99438.22
2023-02-12T00:55:17.505Z,99456.50
2023-02-12T00:59:21.136Z,99461.75
2023-02-12T01:03:25.826Z,99461.03
2023-02-12T01:07:29.064Z,99454.41
2023-02-12T01:11:32.183Z,99451.19
2023-02-12T01:15:35.980Z,99459.28
2023-02-12T01:19:40.819Z,99449.94
2023-02-12T01:23:44.689Z,99444.88
2023-02-12T01:27:48.189Z,99428.59
2023-02-12T01:31:51.781Z,99428.44
2023-02-12T01:35:57.526Z,99427.56
2023-02-12T01:40:00.712Z,99431.00
2023-02-12T01:44:09.920Z,99419.75
2023-02-12T01:48:14.740Z,99432.66
2023-02-12T01:52:25.293Z,99413.09
2023-02-12T01:56:29.580Z,99425.84
2023-02-12T02:00:33.283Z,99432.59
2023-02-12T02:04:45.175Z,99436.78
2023-02-12T02:08:52.680Z,99429.91
2023-02-12T02:13:13.698Z,99440.25
2023-02-12T02:17:36.069Z,99447.13
2023-02-12T02:22:18.898Z,99443.94
2023-02-12T02:26:46.385Z,99450.97
2023-02-12T02:30:57.470Z,99455.28
2023-02-12T02:35:06.315Z,99439.94
2023-02-12T02:39:17.935Z,99440.19
2023-02-12T02:43:27.149Z,99449.81
2023-02-12T02:47:39.507Z,99449.97
2023-02-12T02:51:46.122Z,99460.47
2023-02-12T02:55:54.421Z,99460.66
2023-02-12T03:00:06.756Z,99467.63
2023-02-12T03:04:18.090Z,99472.06
2023-02-12T03:08:25.416Z,99476.47
2023-02-12T03:12:33.603Z,99476.66
2023-02-12T03:16:41.669Z,99468.97
2023-02-12T03:20:53.136Z,99466.56
2023-02-12T03:25:00.588Z,99450.41
2023-02-12T03:29:03.826Z,99456.53
2023-02-12T03:33:18.809Z,99455.91
2023-02-12T03:37:32.186Z,99467.16
2023-02-12T03:41:43.382Z,99468.81
2023-02-12T03:45:51.872Z,99463.97
2023-02-12T03:50:02.716Z,99475.16
2023-02-12T03:54:09.430Z,99493.16
2023-02-12T03:58:19.835Z,99493.16
2023-02-12T04:02:23.298Z,99501.78
2023-02-12T04:06:29.385Z,99508.66
2023-02-12T04:10:41.775Z,99498.31
2023-02-12T04:15:03.221Z,99503.50
2023-02-12T04:19:07.140Z,99507.88
2023-02-12T04:23:18.940Z,99503.56
2023-02-12T04:27:30.880Z,99500.13
2023-02-12T04:31:40.598Z,99497.41
2023-02-12T04:35:50.072Z,99492.22
2023-02-12T04:39:54.922Z,99499.06
2023-02-12T04:43:59.984Z,99489.56
2023-02-12T04:48:03.689Z,99489.56
2023-02-12T04:52:07.352Z,99507.66
2023-02-12T04:56:13.205Z,99509.31
2023-02-12T05:00:18.851Z,99518.66
2023-02-12T05:04:22.413Z,99525.50
2023-02-12T05:08:25.274Z,99533.25
2023-02-12T05:12:28.920Z,99533.97
2023-02-12T05:16:33.328Z,99538.19
2023-02-12T05:20:36.575Z,99544.00
2023-02-12T05:24:40.636Z,99558.50
2023-02-12T05:28:43.843Z,99553.25
2023-02-12T05:32:48.437Z,99561.69
2023-02-12T05:36:51.700Z,99565.13
2023-02-12T05:40:54.771Z,99572.81
2023-02-12T05:44:58.153Z,99569.38
2023-02-12T05:49:03.114Z,99563.34
2023-02-12T05:53:06.416Z,99567.72
2023-02-12T05:57:09.971Z,99567.88
2023-02-12T06:01:16.421Z,99567.94
2023-02-12T06:05:21.074Z,99562.84
2023-02-12T06:09:25.026Z,99565.44
2023-02-12T06:13:28.431Z,99567.09
2023-02-12T06:17:31.878Z,99584.19
2023-02-12T06:21:36.729Z,99575.53
2023-02-12T06:25:39.938Z,99581.53
2023-02-12T06:29:43.665Z,99582.38
2023-02-12T06:33:46.850Z,99586.63
2023-02-12T06:37:51.463Z,99604.63
2023-02-12T06:41:54.781Z,99613.97
2023-02-12T06:45:58.492Z,99615.56
2023-02-12T06:50:01.559Z,99628.25
2023-02-12T06:54:06.399Z,99634.09
2023-02-12T06:58:09.799Z,99627.09
2023-02-12T07:02:13.892Z,99638.09
2023-02-12T07:06:17.837Z,99638.03
2023-02-12T07:10:22.621Z,99649.13
2023-02-12T07:14:27.055Z,99644.78
2023-02-12T07:18:30.456Z,99650.78
2023-02-12T07:22:37.080Z,99655.81
2023-02-12T07:26:43.025Z,99648.81
2023-02-12T07:30:45.921Z,99641.06
2023-02-12T07:34:49.180Z,99650.31
2023-02-12T07:38:52.635Z,99646.56
2023-02-12T07:42:58.453Z,99649.75
2023-02-12T07:47:01.540Z,99655.50
2023-02-12T07:51:07.463Z,99656.00
2023-02-12T07:55:10.790Z,99643.06
2023-02-12T07:59:17.936Z,99652.91
2023-02-12T08:03:21.103Z,99655.19
2023-02-12T08:07:24.433Z,99653.16
2023-02-12T08:11:30.058Z,99648.56
2023-02-12T08:15:34.861Z,99649.16
2023-02-12T08:19:38.097Z,99651.47
2023-02-12T08:23:41.299Z,99646.97
2023-02-12T08:27:44.662Z,99650.13
2023-02-12T08:31:50.938Z,99644.63
2023-02-12T08:36:03.352Z,99655.56
2023-02-12T08:40:07.096Z,99650.13
2023-02-12T08:44:12.154Z,99652.44
2023-02-12T08:48:16.837Z,99657.13
2023-02-12T08:52:19.976Z,99661.09
2023-02-12T08:56:26.481Z,99666.69
2023-02-12T09:00:29.619Z,99668.03
2023-02-12T09:04:36.262Z,99676.13
2023-02-12T09:08:40.613Z,99670.59
2023-02-12T09:12:46.263Z,99674.56
2023-02-12T09:16:49.624Z,99677.66
2023-02-12T09:20:54.165Z,99678.22
2023-02-12T09:24:57.492Z,99691.75
2023-02-12T09:29:02.748Z,99694.81
2023-02-12T09:33:06.144Z,99694.09
2023-02-12T09:37:10.512Z,99706.31
2023-02-12T09:41:39.753Z,99704.56
2023-02-12T09:45:50.365Z,99711.63
2023-02-12T09:50:12.780Z,99710.75
2023-02-12T09:54:21.066Z,99723.09
2023-02-12T09:58:34.496Z,99712.97
2023-02-12T10:02:39.288Z,99710.75
2023-02-12T10:06:48.590Z,99717.75
2023-02-12T10:10:59.949Z,99723.94
2023-02-12T10:15:34.161Z,99736.06
2023-02-12T10:20:01.478Z,99737.25
2023-02-12T10:24:24.710Z,99736.81
2023-02-12T10:28:34.588Z,99741.69
2023-02-12T10:32:39.326Z,99731.84
2023-02-12T10:36:44.885Z,99735.81
2023-02-12T10:40:50.647Z,99735.50
2023-02-12T10:44:55.561Z,99732.53
2023-02-12T10:49:02.082Z,99727.13
2023-02-12T10:53:05.127Z,99723.38
2023-02-12T10:57:13.867Z,99724.66
2023-02-12T11:01:22.309Z,99719.03
2023-02-12T11:05:26.932Z,99736.53
2023-02-12T11:09:32.734Z,99721.34
2023-02-12T11:13:37.631Z,99724.81
2023-02-12T11:17:44.642Z,99710.03
2023-02-12T11:21:48.334Z,99708.06
2023-02-12T11:25:58.685Z,99691.88
2023-02-12T11:30:21.904Z,99695.56
2023-02-12T11:34:27.050Z,99697.84
2023-02-12T11:38:34.636Z,99702.47
2023-02-12T11:42:43.843Z,99691.81
2023-02-12T11:46:51.077Z,99704.69
2023-02-12T11:50:59.403Z,99704.03
2023-02-12T11:55:05.871Z,99693.38
2023-02-12T11:59:21.053Z,99680.44
2023-02-12T12:03:30.243Z,99678.78
2023-02-12T12:07:38.612Z,99683.63
2023-02-12T12:11:50.964Z,99682.09
2023-02-12T12:16:19.243Z,99679.59
2023-02-12T12:20:26.971Z,99671.41
2023-02-12T12:24:40.103Z,99678.38
2023-02-12T12:28:46.063Z,99677.66
2023-02-12T12:32:53.737Z,99676.44
2023-02-12T12:37:21.842Z,99672.41
2023-02-12T12:41:33.786Z,99662.81
2023-02-12T12:46:15.117Z,99666.97
2023-02-12T12:50:46.686Z,99662.25
2023-02-12T12:55:00.099Z,99653.97
2023-02-12T12:59:31.704Z,99648.91
2023-02-12T13:03:53.065Z,99649.06
2023-02-12T13:08:02.946Z,99646.84
2023-02-12T13:12:27.299Z,99641.03
2023-02-12T13:16:36.882Z,99649.13
2023-02-12T13:20:47.887Z,99650.44
2023-02-12T13:24:59.485Z,99658.63
2023-02-12T13:29:07.808Z,99654.81
2023-02-12T13:33:18.641Z,99653.78
2023-02-12T13:37:29.562Z,99654.59
2023-02-12T13:41:33.667Z,99654.59
2023-02-12T13:45:45.605Z,99643.94
2023-02-12T13:49:56.478Z,99642.03
2023-02-12T13:54:12.928Z,99644.41
2023-02-12T13:58:50.429Z,99638.34
2023-02-12T14:02:54.249Z,99643.69
2023-02-12T14:07:02.219Z,99646.31
2023-02-12T14:11:08.804Z,99642.75
2023-02-12T14:15:27.578Z,99635.63
2023-02-12T14:19:43.103Z,99634.66
2023-02-12T14:23:50.827Z,99634.66
2023-02-12T14:27:56.455Z,99623.41
2023-02-12T14:31:59.755Z,99625.91
2023-02-12T14:36:20.146Z,99632.56
2023-02-12T14:40:49.315Z,99626.25
2023-02-12T14:44:58.182Z,99622.84
2023-02-12T14:49:06.993Z,99620.69
2023-02-12T14:53:27.510Z,99624.72
2023-02-12T14:57:34.924Z,99632.28
2023-02-12T15:01:39.450Z,99625.16
2023-02-12T15:05:45.025Z,99636.78
2023-02-12T15:09:53.063Z,99636.88
2023-02-12T15:14:02.469Z,99628.94
2023-02-12T15:18:13.727Z,99636.53
2023-02-12T15:22:23.740Z,99634.66
2023-02-12T15:26:28.975Z,99632.28
2023-02-12T15:30:36.838Z,99624.34
2023-02-12T15:34:42.368Z,99640.28
2023-02-12T15:38:46.196Z,99636.66
2023-02-12T15:42:55.291Z,99635.97
2023-02-12T15:47:04.232Z,99640.47
2023-02-12T15:51:15.636Z,99648.41
2023-02-12T15:55:21.785Z,99649.50
2023-02-12T15:59:29.253Z,99654.97
2023-02-12T16:03:36.474Z,99658.47
2023-02-12T16:07:39.939Z,99658.56
2023-02-12T16:11:45.904Z,99663.66
2023-02-12T16:16:05.929Z,99662.94
2023-02-12T16:20:24.938Z,99653.53
2023-02-12T16:24:34.076Z,99648.41
2023-02-12T16:28:38.604Z,99656.22
2023-02-12T16:32:45.251Z,99664.81
2023-02-12T16:36:50.186Z,99662.06
2023-02-12T16:41:16.295Z,99669.53
2023-02-12T16:45:35.984Z,99673.63
2023-02-12T16:49:39.197Z,99684.31
2023-02-12T16:53:47.726Z,99681.06
2023-02-12T16:57:51.012Z,99692.47
2023-02-12T17:02:02.503Z,99690.75
2023-02-12T17:06:06.104Z,99695.06
2023-02-12T17:10:14.384Z,99697.53
2023-02-12T17:14:20.530Z,99702.56
2023-02-12T17:18:24.358Z,99703.16
2023-02-12T17:22:28.774Z,99705.47
2023-02-12T17:26:33.627Z,99712.06
2023-02-12T17:30:37.456Z,99708.34
2023-02-12T17:34:48.504Z,99708.69
2023-02-12T17:44:17.367Z,99712.72
2023-02-12T17:48:23.019Z,99718.19
2023-02-12T17:52:26.318Z,99708.00
2023-02-12T17:56:29.201Z,99707.22
2023-02-12T18:00:33.878Z,99706.56
2023-02-12T18:04:36.956Z,99709.31
2023-02-12T18:08:40.199Z,99711.13
2023-02-12T18:12:44.417Z,99710.41
2023-02-12T18:16:49.171Z,99705.34
2023-02-12T18:20:52.609Z,99717.25
2023-02-12T18:24:58.184Z,99711.84
2023-02-12T18:29:03.029Z,99718.31
2023-02-12T18:33:08.994Z,99725.75
2023-02-12T18:37:13.846Z,99721.38
2023-02-12T18:41:19.047Z,99725.47
2023-02-12T18:45:22.909Z,99715.91
2023-02-12T18:49:28.306Z,99717.59
2023-02-12T18:53:32.013Z,99720.94
2023-02-12T18:57:35.246Z,99727.00
2023-02-12T19:01:40.162Z,99728.97
2023-02-12T19:05:44.670Z,99723.34
2023-02-12T19:09:49.292Z,99720.28
2023-02-12T19:13:52.780Z,99720.66
2023-02-12T19:17:56.384Z,99714.25
2023-02-12T19:22:01.064Z,99710.59
2023-02-12T19:26:05.470Z,99725.09
2023-02-12T19:30:10.198Z,99725.69
2023-02-12T19:34:17.087Z,99719.34
2023-02-12T19:38:21.789Z,99720.53
2023-02-12T19:42:25.313Z,99715.69
2023-02-12T19:46:30.324Z,99720.78
2023-02-12T19:50:35.411Z,99712.28
2023-02-12T19:54:39.857Z,99710.03
2023-02-12T19:58:43.360Z,99717.28
2023-02-12T20:02:48.030Z,99708.91
2023-02-12T20:06:53.293Z,99713.06
2023-02-12T20:10:58.146Z,99717.34
2023-02-12T20:15:05.487Z,99712.31
2023-02-12T20:19:10.940Z,99708.41
2023-02-12T20:23:14.248Z,99714.00
2023-02-12T20:27:18.490Z,99712.72
2023-02-12T20:31:24.403Z,99715.66
2023-02-12T20:35:28.444Z,99721.97
2023-02-12T20:39:32.000Z,99730.59
2023-02-12T20:43:37.201Z,99724.53
2023-02-12T20:47:43.629Z,99728.78
2023-02-12T20:51:50.701Z,99721.31
2023-02-12T20:55:54.296Z,99728.25
2023-02-12T20:59:58.534Z,99729.75
2023-02-12T21:04:04.352Z,99734.84
2023-02-12T21:08:07.948Z,99742.56
2023-02-12T21:12:11.604Z,99744.38
2023-02-12T21:16:18.823Z,99735.97
2023-02-12T21:20:22.159Z,99738.03
2023-02-12T21:24:27.043Z,99732.41
2023-02-12T21:28:30.681Z,99743.91
2023-02-12T21:32:35.415Z,99736.56
2023-02-12T21:36:41.213Z,99739.38
2023-02-12T21:40:44.897Z,99738.91
2023-02-12T21:44:47.922Z,99734.91
2023-02-12T21:48:53.765Z,99730.00
2023-02-12T21:52:56.851Z,99725.09
2023-02-12T21:57:01.047Z,99721.69
2023-02-12T22:01:09.045Z,99725.97
2023-02-12T22:05:14.051Z,99717.50
2023-02-12T22:09:19.167Z,99721.84
2023-02-12T22:13:22.469Z,99722.88
2023-02-12T22:17:25.569Z,99723.09
2023-02-12T22:21:32.591Z,99719.09
2023-02-12T22:25:35.851Z,99719.34
2023-02-12T22:29:39.184Z,99720.53
2023-02-12T22:33:42.262Z,99725.81
2023-02-12T22:37:47.200Z,99725.06
2023-02-12T22:41:50.617Z,99727.78
2023-02-12T22:45:53.732Z,99728.81
2023-02-12T22:49:57.242Z,99735.81
2023-02-12T22:54:02.395Z,99730.78
2023-02-12T22:58:05.347Z,99725.00
2023-02-12T23:02:08.561Z,99727.66
2023-02-12T23:06:14.590Z,99726.00
2023-02-12T23:10:19.511Z,99720.97
2023-02-12T23:14:22.987Z,99715.81
2023-02-12T23:18:26.919Z,99708.06
2023-02-12T23:22:29.842Z,99702.94
2023-02-12T23:26:36.570Z,99703.75
2023-02-12T23:30:39.861Z,99699.56
2023-02-12T23:34:42.847Z,99697.94
2023-02-12T23:38:46.102Z,99698.97
2023-02-12T23:42:51.187Z,99701.69
2023-02-12T23:46:54.511Z,99689.84
2023-02-12T23:50:58.176Z,99696.84
2023-02-12T23:55:02.079Z,99697.00
2023-02-12T23:59:06.715Z,99693.78
